sensor_id;sensor_type;location;lat;lon;timestamp;P1;durP1;ratioP1;P2;durP2;ratioP2
67805;SDS011;54603;45.638;11.714;2024-02-23T00:02:22;15.50;;;11.90;;
67805;SDS011;54603;45.638;11.714;2024-02-23T00:04:48;12.50;;;10.20;;
67805;SDS011;54603;45.638;11.714;2024-02-23T00:07:13;15.70;;;13.20;;
67805;SDS011;54603;45.638;11.714;2024-02-23T00:09:39;13.80;;;11.50;;
67805;SDS011;54603;45.638;11.714;2024-02-23T00:12:05;10.40;;;9.30;;
67805;SDS011;54603;45.638;11.714;2024-02-23T00:14:31;12.60;;;11.20;;
67805;SDS011;54603;45.638;11.714;2024-02-23T00:16:57;12.90;;;10.10;;
67805;SDS011;54603;45.638;11.714;2024-02-23T00:19:24;14.60;;;12.60;;
67805;SDS011;54603;45.638;11.714;2024-02-23T00:21:50;13.70;;;10.00;;
67805;SDS011;54603;45.638;11.714;2024-02-23T00:24:18;10.40;;;9.30;;
67805;SDS011;54603;45.638;11.714;2024-02-23T00:26:47;9.80;;;8.80;;
67805;SDS011;54603;45.638;11.714;2024-02-23T00:29:13;12.30;;;9.70;;
67805;SDS011;54603;45.638;11.714;2024-02-23T00:31:42;11.20;;;9.90;;
67805;SDS011;54603;45.638;11.714;2024-02-23T00:34:11;11.90;;;10.20;;
67805;SDS011;54603;45.638;11.714;2024-02-23T00:36:39;11.50;;;9.40;;
67805;SDS011;54603;45.638;11.714;2024-02-23T00:39:07;13.70;;;11.30;;
67805;SDS011;54603;45.638;11.714;2024-02-23T00:41:34;19.50;;;15.00;;
67805;SDS011;54603;45.638;11.714;2024-02-23T00:44:01;16.40;;;13.00;;
67805;SDS011;54603;45.638;11.714;2024-02-23T00:46:30;11.00;;;9.50;;
67805;SDS011;54603;45.638;11.714;2024-02-23T00:49:04;9.80;;;8.80;;
67805;SDS011;54603;45.638;11.714;2024-02-23T00:51:31;11.10;;;9.20;;
67805;SDS011;54603;45.638;11.714;2024-02-23T00:53:57;10.60;;;9.40;;
67805;SDS011;54603;45.638;11.714;2024-02-23T00:56:22;9.80;;;8.30;;
67805;SDS011;54603;45.638;11.714;2024-02-23T00:58:48;12.10;;;9.10;;
67805;SDS011;54603;45.638;11.714;2024-02-23T01:01:14;9.80;;;8.30;;
67805;SDS011;54603;45.638;11.714;2024-02-23T01:03:40;11.70;;;8.90;;
67805;SDS011;54603;45.638;11.714;2024-02-23T01:06:06;10.00;;;8.10;;
67805;SDS011;54603;45.638;11.714;2024-02-23T01:08:31;9.30;;;8.30;;
67805;SDS011;54603;45.638;11.714;2024-02-23T01:10:57;9.10;;;8.20;;
67805;SDS011;54603;45.638;11.714;2024-02-23T01:13:23;10.50;;;8.30;;
67805;SDS011;54603;45.638;11.714;2024-02-23T01:15:49;11.60;;;8.70;;
67805;SDS011;54603;45.638;11.714;2024-02-23T01:18:15;9.10;;;7.70;;
67805;SDS011;54603;45.638;11.714;2024-02-23T01:20:41;8.70;;;7.80;;
67805;SDS011;54603;45.638;11.714;2024-02-23T01:23:07;13.80;;;11.50;;
67805;SDS011;54603;45.638;11.714;2024-02-23T01:25:33;12.30;;;9.50;;
67805;SDS011;54603;45.638;11.714;2024-02-23T01:28:00;9.30;;;7.50;;
67805;SDS011;54603;45.638;11.714;2024-02-23T01:30:26;9.70;;;7.90;;
67805;SDS011;54603;45.638;11.714;2024-02-23T01:32:51;8.80;;;7.70;;
67805;SDS011;54603;45.638;11.714;2024-02-23T01:35:17;9.30;;;7.50;;
67805;SDS011;54603;45.638;11.714;2024-02-23T01:37:44;9.20;;;8.20;;
67805;SDS011;54603;45.638;11.714;2024-02-23T01:40:09;9.80;;;8.20;;
67805;SDS011;54603;45.638;11.714;2024-02-23T01:42:35;8.70;;;7.40;;
67805;SDS011;54603;45.638;11.714;2024-02-23T01:45:01;8.70;;;7.80;;
67805;SDS011;54603;45.638;11.714;2024-02-23T01:47:28;9.10;;;7.60;;
67805;SDS011;54603;45.638;11.714;2024-02-23T01:49:57;9.10;;;7.80;;
67805;SDS011;54603;45.638;11.714;2024-02-23T01:52:23;8.30;;;7.40;;
67805;SDS011;54603;45.638;11.714;2024-02-23T01:54:49;8.10;;;7.20;;
67805;SDS011;54603;45.638;11.714;2024-02-23T01:57:16;9.50;;;7.80;;
67805;SDS011;54603;45.638;11.714;2024-02-23T01:59:42;9.50;;;8.10;;
67805;SDS011;54603;45.638;11.714;2024-02-23T02:02:08;7.90;;;6.80;;
67805;SDS011;54603;45.638;11.714;2024-02-23T02:04:34;9.90;;;7.20;;
67805;SDS011;54603;45.638;11.714;2024-02-23T02:07:01;8.60;;;7.10;;
67805;SDS011;54603;45.638;11.714;2024-02-23T02:09:27;8.90;;;7.50;;
67805;SDS011;54603;45.638;11.714;2024-02-23T02:11:53;9.20;;;7.00;;
67805;SDS011;54603;45.638;11.714;2024-02-23T02:14:19;8.10;;;7.20;;
67805;SDS011;54603;45.638;11.714;2024-02-23T02:16:45;8.30;;;7.20;;
67805;SDS011;54603;45.638;11.714;2024-02-23T02:19:12;8.00;;;6.90;;
67805;SDS011;54603;45.638;11.714;2024-02-23T02:21:38;7.80;;;6.90;;
67805;SDS011;54603;45.638;11.714;2024-02-23T02:24:06;7.70;;;6.90;;
67805;SDS011;54603;45.638;11.714;2024-02-23T02:29:05;7.10;;;6.00;;
67805;SDS011;54603;45.638;11.714;2024-02-23T02:31:31;10.00;;;6.90;;
67805;SDS011;54603;45.638;11.714;2024-02-23T02:34:03;7.10;;;6.30;;
67805;SDS011;54603;45.638;11.714;2024-02-23T02:36:29;7.80;;;6.60;;
67805;SDS011;54603;45.638;11.714;2024-02-23T02:38:55;7.10;;;6.20;;
67805;SDS011;54603;45.638;11.714;2024-02-23T02:41:23;8.70;;;6.80;;
67805;SDS011;54603;45.638;11.714;2024-02-23T02:43:50;8.70;;;6.70;;
67805;SDS011;54603;45.638;11.714;2024-02-23T02:46:15;7.70;;;6.80;;
67805;SDS011;54603;45.638;11.714;2024-02-23T02:48:41;7.50;;;6.60;;
67805;SDS011;54603;45.638;11.714;2024-02-23T02:51:07;7.80;;;6.60;;
67805;SDS011;54603;45.638;11.714;2024-02-23T02:53:33;7.90;;;6.20;;
67805;SDS011;54603;45.638;11.714;2024-02-23T02:55:59;7.70;;;6.90;;
67805;SDS011;54603;45.638;11.714;2024-02-23T02:58:24;6.70;;;6.00;;
67805;SDS011;54603;45.638;11.714;2024-02-23T03:00:50;7.30;;;6.40;;
67805;SDS011;54603;45.638;11.714;2024-02-23T03:03:16;6.70;;;6.00;;
67805;SDS011;54603;45.638;11.714;2024-02-23T03:05:42;6.90;;;6.20;;
67805;SDS011;54603;45.638;11.714;2024-02-23T03:08:07;6.60;;;5.90;;
67805;SDS011;54603;45.638;11.714;2024-02-23T03:10:33;6.90;;;6.00;;
67805;SDS011;54603;45.638;11.714;2024-02-23T03:12:59;6.50;;;5.80;;
67805;SDS011;54603;45.638;11.714;2024-02-23T03:15:25;7.10;;;6.20;;
67805;SDS011;54603;45.638;11.714;2024-02-23T03:17:50;7.20;;;6.50;;
67805;SDS011;54603;45.638;11.714;2024-02-23T03:20:16;7.10;;;5.80;;
67805;SDS011;54603;45.638;11.714;2024-02-23T03:22:42;6.50;;;5.80;;
67805;SDS011;54603;45.638;11.714;2024-02-23T03:25:08;7.00;;;5.90;;
67805;SDS011;54603;45.638;11.714;2024-02-23T03:27:36;6.30;;;5.70;;
67805;SDS011;54603;45.638;11.714;2024-02-23T03:30:03;6.70;;;5.50;;
67805;SDS011;54603;45.638;11.714;2024-02-23T03:32:31;5.70;;;5.10;;
67805;SDS011;54603;45.638;11.714;2024-02-23T03:35:05;6.10;;;5.50;;
67805;SDS011;54603;45.638;11.714;2024-02-23T03:37:32;6.50;;;5.60;;
67805;SDS011;54603;45.638;11.714;2024-02-23T03:39:58;6.00;;;5.40;;
67805;SDS011;54603;45.638;11.714;2024-02-23T03:42:25;6.40;;;5.60;;
67805;SDS011;54603;45.638;11.714;2024-02-23T03:44:52;5.70;;;5.00;;
67805;SDS011;54603;45.638;11.714;2024-02-23T03:47:17;5.80;;;5.20;;
67805;SDS011;54603;45.638;11.714;2024-02-23T03:49:43;6.10;;;5.30;;
67805;SDS011;54603;45.638;11.714;2024-02-23T03:52:09;6.10;;;5.50;;
67805;SDS011;54603;45.638;11.714;2024-02-23T03:54:35;5.60;;;5.00;;
67805;SDS011;54603;45.638;11.714;2024-02-23T03:57:00;8.00;;;5.40;;
67805;SDS011;54603;45.638;11.714;2024-02-23T03:59:26;6.20;;;5.40;;
67805;SDS011;54603;45.638;11.714;2024-02-23T04:01:53;5.40;;;4.90;;
67805;SDS011;54603;45.638;11.714;2024-02-23T04:04:18;5.50;;;5.00;;
67805;SDS011;54603;45.638;11.714;2024-02-23T04:06:44;6.00;;;5.20;;
67805;SDS011;54603;45.638;11.714;2024-02-23T04:09:10;6.10;;;5.00;;
67805;SDS011;54603;45.638;11.714;2024-02-23T04:11:37;5.30;;;4.80;;
67805;SDS011;54603;45.638;11.714;2024-02-23T04:14:03;5.50;;;5.00;;
67805;SDS011;54603;45.638;11.714;2024-02-23T04:16:31;5.80;;;4.70;;
67805;SDS011;54603;45.638;11.714;2024-02-23T04:18:57;5.50;;;4.80;;
67805;SDS011;54603;45.638;11.714;2024-02-23T04:21:24;5.20;;;4.60;;
67805;SDS011;54603;45.638;11.714;2024-02-23T04:23:52;5.20;;;4.50;;
67805;SDS011;54603;45.638;11.714;2024-02-23T04:26:18;4.90;;;4.40;;
67805;SDS011;54603;45.638;11.714;2024-02-23T04:28:44;5.80;;;4.70;;
67805;SDS011;54603;45.638;11.714;2024-02-23T04:31:10;5.80;;;4.70;;
67805;SDS011;54603;45.638;11.714;2024-02-23T04:33:37;5.50;;;4.70;;
67805;SDS011;54603;45.638;11.714;2024-02-23T04:36:04;4.90;;;4.40;;
67805;SDS011;54603;45.638;11.714;2024-02-23T04:38:32;5.20;;;4.50;;
67805;SDS011;54603;45.638;11.714;2024-02-23T04:41:03;5.00;;;4.50;;
67805;SDS011;54603;45.638;11.714;2024-02-23T04:43:32;5.10;;;4.30;;
67805;SDS011;54603;45.638;11.714;2024-02-23T04:45:58;5.50;;;4.70;;
67805;SDS011;54603;45.638;11.714;2024-02-23T04:48:24;5.30;;;4.70;;
67805;SDS011;54603;45.638;11.714;2024-02-23T04:50:51;5.80;;;4.90;;
67805;SDS011;54603;45.638;11.714;2024-02-23T04:53:18;5.20;;;4.30;;
67805;SDS011;54603;45.638;11.714;2024-02-23T04:55:45;5.30;;;4.60;;
67805;SDS011;54603;45.638;11.714;2024-02-23T04:58:13;5.50;;;4.70;;
67805;SDS011;54603;45.638;11.714;2024-02-23T05:00:39;4.60;;;4.20;;
67805;SDS011;54603;45.638;11.714;2024-02-23T05:03:08;4.50;;;4.00;;
67805;SDS011;54603;45.638;11.714;2024-02-23T05:05:41;4.70;;;4.00;;
67805;SDS011;54603;45.638;11.714;2024-02-23T05:08:08;4.90;;;4.30;;
67805;SDS011;54603;45.638;11.714;2024-02-23T05:10:34;4.40;;;4.00;;
67805;SDS011;54603;45.638;11.714;2024-02-23T05:13:00;4.90;;;4.40;;
67805;SDS011;54603;45.638;11.714;2024-02-23T05:15:34;5.20;;;3.90;;
67805;SDS011;54603;45.638;11.714;2024-02-23T05:18:00;4.50;;;4.10;;
67805;SDS011;54603;45.638;11.714;2024-02-23T05:20:27;4.60;;;4.00;;
67805;SDS011;54603;45.638;11.714;2024-02-23T05:22:53;4.30;;;3.90;;
67805;SDS011;54603;45.638;11.714;2024-02-23T05:25:18;4.20;;;3.70;;
67805;SDS011;54603;45.638;11.714;2024-02-23T05:27:45;5.40;;;4.40;;
67805;SDS011;54603;45.638;11.714;2024-02-23T05:30:11;6.10;;;4.10;;
67805;SDS011;54603;45.638;11.714;2024-02-23T05:32:38;5.30;;;4.20;;
67805;SDS011;54603;45.638;11.714;2024-02-23T05:35:04;4.50;;;4.10;;
67805;SDS011;54603;45.638;11.714;2024-02-23T05:37:30;4.90;;;4.30;;
67805;SDS011;54603;45.638;11.714;2024-02-23T05:39:57;4.20;;;3.80;;
67805;SDS011;54603;45.638;11.714;2024-02-23T05:42:25;4.20;;;3.80;;
67805;SDS011;54603;45.638;11.714;2024-02-23T05:44:55;4.20;;;3.80;;
67805;SDS011;54603;45.638;11.714;2024-02-23T05:47:26;4.10;;;3.70;;
67805;SDS011;54603;45.638;11.714;2024-02-23T05:49:53;5.00;;;4.20;;
67805;SDS011;54603;45.638;11.714;2024-02-23T05:52:18;4.30;;;3.80;;
67805;SDS011;54603;45.638;11.714;2024-02-23T05:54:46;4.70;;;3.60;;
67805;SDS011;54603;45.638;11.714;2024-02-23T05:57:12;4.30;;;3.70;;
67805;SDS011;54603;45.638;11.714;2024-02-23T05:59:37;5.30;;;4.20;;
67805;SDS011;54603;45.638;11.714;2024-02-23T06:02:03;4.20;;;3.70;;
67805;SDS011;54603;45.638;11.714;2024-02-23T06:04:29;4.20;;;3.60;;
67805;SDS011;54603;45.638;11.714;2024-02-23T06:06:59;4.20;;;3.80;;
67805;SDS011;54603;45.638;11.714;2024-02-23T06:09:27;3.90;;;3.50;;
67805;SDS011;54603;45.638;11.714;2024-02-23T06:11:55;4.00;;;3.60;;
67805;SDS011;54603;45.638;11.714;2024-02-23T06:14:22;4.30;;;3.80;;
67805;SDS011;54603;45.638;11.714;2024-02-23T06:16:53;4.20;;;3.80;;
67805;SDS011;54603;45.638;11.714;2024-02-23T06:19:21;5.00;;;3.90;;
67805;SDS011;54603;45.638;11.714;2024-02-23T06:21:50;3.50;;;3.20;;
67805;SDS011;54603;45.638;11.714;2024-02-23T06:24:16;4.00;;;3.50;;
67805;SDS011;54603;45.638;11.714;2024-02-23T06:26:43;3.90;;;3.50;;
67805;SDS011;54603;45.638;11.714;2024-02-23T06:29:09;3.60;;;3.20;;
67805;SDS011;54603;45.638;11.714;2024-02-23T06:31:37;4.70;;;3.50;;
67805;SDS011;54603;45.638;11.714;2024-02-23T06:34:04;3.70;;;3.40;;
67805;SDS011;54603;45.638;11.714;2024-02-23T06:36:33;4.70;;;3.50;;
67805;SDS011;54603;45.638;11.714;2024-02-23T06:38:59;3.70;;;3.30;;
67805;SDS011;54603;45.638;11.714;2024-02-23T06:41:25;6.10;;;3.30;;
67805;SDS011;54603;45.638;11.714;2024-02-23T06:43:51;4.30;;;3.90;;
67805;SDS011;54603;45.638;11.714;2024-02-23T06:46:21;3.50;;;3.20;;
67805;SDS011;54603;45.638;11.714;2024-02-23T06:48:46;4.80;;;3.70;;
67805;SDS011;54603;45.638;11.714;2024-02-23T06:51:12;4.00;;;3.60;;
67805;SDS011;54603;45.638;11.714;2024-02-23T06:53:38;3.90;;;3.60;;
67805;SDS011;54603;45.638;11.714;2024-02-23T06:56:04;5.00;;;3.50;;
67805;SDS011;54603;45.638;11.714;2024-02-23T06:58:30;5.00;;;3.30;;
67805;SDS011;54603;45.638;11.714;2024-02-23T07:00:55;3.70;;;3.30;;
67805;SDS011;54603;45.638;11.714;2024-02-23T07:03:22;3.80;;;3.40;;
67805;SDS011;54603;45.638;11.714;2024-02-23T07:05:48;4.10;;;3.70;;
67805;SDS011;54603;45.638;11.714;2024-02-23T07:08:15;4.20;;;3.50;;
67805;SDS011;54603;45.638;11.714;2024-02-23T07:10:41;5.10;;;3.30;;
67805;SDS011;54603;45.638;11.714;2024-02-23T07:13:07;4.20;;;3.60;;
67805;SDS011;54603;45.638;11.714;2024-02-23T07:15:34;3.80;;;3.40;;
67805;SDS011;54603;45.638;11.714;2024-02-23T07:18:02;4.20;;;3.30;;
67805;SDS011;54603;45.638;11.714;2024-02-23T07:20:28;6.10;;;3.30;;
67805;SDS011;54603;45.638;11.714;2024-02-23T07:22:53;3.70;;;3.30;;
67805;SDS011;54603;45.638;11.714;2024-02-23T07:25:20;3.80;;;3.20;;
67805;SDS011;54603;45.638;11.714;2024-02-23T07:27:46;4.20;;;3.30;;
67805;SDS011;54603;45.638;11.714;2024-02-23T07:30:14;3.80;;;3.20;;
67805;SDS011;54603;45.638;11.714;2024-02-23T07:32:42;5.70;;;3.50;;
67805;SDS011;54603;45.638;11.714;2024-02-23T07:35:09;5.30;;;3.50;;
67805;SDS011;54603;45.638;11.714;2024-02-23T07:37:36;4.00;;;3.20;;
67805;SDS011;54603;45.638;11.714;2024-02-23T07:40:03;6.00;;;2.80;;
67805;SDS011;54603;45.638;11.714;2024-02-23T07:42:32;3.90;;;3.40;;
67805;SDS011;54603;45.638;11.714;2024-02-23T07:45:02;6.50;;;3.40;;
67805;SDS011;54603;45.638;11.714;2024-02-23T07:47:30;4.40;;;3.40;;
67805;SDS011;54603;45.638;11.714;2024-02-23T07:49:57;3.50;;;2.90;;
67805;SDS011;54603;45.638;11.714;2024-02-23T07:52:32;4.70;;;3.20;;
67805;SDS011;54603;45.638;11.714;2024-02-23T07:55:06;10.60;;;3.40;;
67805;SDS011;54603;45.638;11.714;2024-02-23T07:57:32;5.70;;;3.40;;
67805;SDS011;54603;45.638;11.714;2024-02-23T08:00:00;3.70;;;3.30;;
67805;SDS011;54603;45.638;11.714;2024-02-23T08:02:27;5.90;;;2.80;;
67805;SDS011;54603;45.638;11.714;2024-02-23T08:04:54;4.00;;;2.90;;
67805;SDS011;54603;45.638;11.714;2024-02-23T08:07:25;3.90;;;3.20;;
67805;SDS011;54603;45.638;11.714;2024-02-23T08:09:54;6.30;;;3.10;;
67805;SDS011;54603;45.638;11.714;2024-02-23T08:12:19;4.90;;;3.10;;
67805;SDS011;54603;45.638;11.714;2024-02-23T08:14:45;3.80;;;2.90;;
67805;SDS011;54603;45.638;11.714;2024-02-23T08:17:12;3.70;;;3.00;;
67805;SDS011;54603;45.638;11.714;2024-02-23T08:19:38;5.60;;;3.30;;
67805;SDS011;54603;45.638;11.714;2024-02-23T08:22:04;4.60;;;3.10;;
67805;SDS011;54603;45.638;11.714;2024-02-23T08:24:31;3.30;;;3.00;;
67805;SDS011;54603;45.638;11.714;2024-02-23T08:26:56;5.60;;;2.80;;
67805;SDS011;54603;45.638;11.714;2024-02-23T08:29:23;4.70;;;3.20;;
67805;SDS011;54603;45.638;11.714;2024-02-23T08:31:49;3.70;;;3.00;;
67805;SDS011;54603;45.638;11.714;2024-02-23T08:34:15;3.80;;;2.90;;
67805;SDS011;54603;45.638;11.714;2024-02-23T08:36:43;5.20;;;3.00;;
67805;SDS011;54603;45.638;11.714;2024-02-23T08:39:09;3.70;;;2.90;;
67805;SDS011;54603;45.638;11.714;2024-02-23T08:41:36;3.80;;;3.10;;
67805;SDS011;54603;45.638;11.714;2024-02-23T08:44:02;3.60;;;2.80;;
67805;SDS011;54603;45.638;11.714;2024-02-23T08:46:31;4.70;;;3.00;;
67805;SDS011;54603;45.638;11.714;2024-02-23T08:49:05;4.40;;;2.90;;
67805;SDS011;54603;45.638;11.714;2024-02-23T08:51:31;6.90;;;2.90;;
67805;SDS011;54603;45.638;11.714;2024-02-23T08:53:59;5.30;;;3.20;;
67805;SDS011;54603;45.638;11.714;2024-02-23T08:56:36;3.30;;;2.80;;
67805;SDS011;54603;45.638;11.714;2024-02-23T08:59:04;5.00;;;3.00;;
67805;SDS011;54603;45.638;11.714;2024-02-23T09:01:30;3.50;;;2.80;;
67805;SDS011;54603;45.638;11.714;2024-02-23T09:03:56;4.90;;;2.80;;
67805;SDS011;54603;45.638;11.714;2024-02-23T09:06:23;4.70;;;3.10;;
67805;SDS011;54603;45.638;11.714;2024-02-23T09:08:55;3.80;;;2.80;;
67805;SDS011;54603;45.638;11.714;2024-02-23T09:11:21;5.80;;;3.30;;
67805;SDS011;54603;45.638;11.714;2024-02-23T09:13:48;6.90;;;2.90;;
67805;SDS011;54603;45.638;11.714;2024-02-23T09:16:13;6.10;;;3.10;;
67805;SDS011;54603;45.638;11.714;2024-02-23T09:18:40;4.20;;;2.50;;
67805;SDS011;54603;45.638;11.714;2024-02-23T09:21:06;5.30;;;3.00;;
67805;SDS011;54603;45.638;11.714;2024-02-23T09:23:31;4.00;;;2.90;;
67805;SDS011;54603;45.638;11.714;2024-02-23T09:25:59;6.90;;;2.90;;
67805;SDS011;54603;45.638;11.714;2024-02-23T09:28:25;3.80;;;2.70;;
67805;SDS011;54603;45.638;11.714;2024-02-23T09:30:50;5.50;;;3.00;;
67805;SDS011;54603;45.638;11.714;2024-02-23T09:33:16;5.50;;;2.90;;
67805;SDS011;54603;45.638;11.714;2024-02-23T09:35:42;4.10;;;2.80;;
67805;SDS011;54603;45.638;11.714;2024-02-23T09:38:08;4.00;;;2.90;;
67805;SDS011;54603;45.638;11.714;2024-02-23T09:40:34;5.10;;;2.80;;
67805;SDS011;54603;45.638;11.714;2024-02-23T09:42:59;3.90;;;2.70;;
67805;SDS011;54603;45.638;11.714;2024-02-23T09:45:26;5.20;;;2.90;;
67805;SDS011;54603;45.638;11.714;2024-02-23T09:47:56;3.30;;;2.80;;
67805;SDS011;54603;45.638;11.714;2024-02-23T09:50:23;3.30;;;2.70;;
67805;SDS011;54603;45.638;11.714;2024-02-23T09:52:50;4.30;;;2.80;;
67805;SDS011;54603;45.638;11.714;2024-02-23T09:55:17;4.60;;;2.90;;
67805;SDS011;54603;45.638;11.714;2024-02-23T09:57:47;4.40;;;2.70;;
67805;SDS011;54603;45.638;11.714;2024-02-23T10:00:18;5.20;;;2.90;;
67805;SDS011;54603;45.638;11.714;2024-02-23T10:02:44;2.80;;;2.40;;
67805;SDS011;54603;45.638;11.714;2024-02-23T10:05:11;7.60;;;2.90;;
67805;SDS011;54603;45.638;11.714;2024-02-23T10:07:40;3.20;;;2.50;;
67805;SDS011;54603;45.638;11.714;2024-02-23T10:10:09;5.30;;;2.60;;
67805;SDS011;54603;45.638;11.714;2024-02-23T10:12:36;3.40;;;2.80;;
67805;SDS011;54603;45.638;11.714;2024-02-23T10:15:03;5.00;;;2.60;;
67805;SDS011;54603;45.638;11.714;2024-02-23T10:17:30;3.20;;;2.60;;
67805;SDS011;54603;45.638;11.714;2024-02-23T10:19:57;3.80;;;2.60;;
67805;SDS011;54603;45.638;11.714;2024-02-23T10:22:23;4.50;;;2.80;;
67805;SDS011;54603;45.638;11.714;2024-02-23T10:24:51;3.50;;;2.80;;
67805;SDS011;54603;45.638;11.714;2024-02-23T10:27:17;4.50;;;2.60;;
67805;SDS011;54603;45.638;11.714;2024-02-23T10:29:44;4.90;;;2.90;;
67805;SDS011;54603;45.638;11.714;2024-02-23T10:32:15;4.50;;;2.80;;
67805;SDS011;54603;45.638;11.714;2024-02-23T10:34:43;4.10;;;2.50;;
67805;SDS011;54603;45.638;11.714;2024-02-23T10:37:09;4.70;;;2.70;;
67805;SDS011;54603;45.638;11.714;2024-02-23T10:39:37;4.30;;;2.60;;
67805;SDS011;54603;45.638;11.714;2024-02-23T10:42:04;4.50;;;2.80;;
67805;SDS011;54603;45.638;11.714;2024-02-23T10:44:35;3.40;;;2.50;;
67805;SDS011;54603;45.638;11.714;2024-02-23T10:47:04;3.70;;;2.70;;
67805;SDS011;54603;45.638;11.714;2024-02-23T10:49:30;4.80;;;2.80;;
67805;SDS011;54603;45.638;11.714;2024-02-23T10:51:57;3.20;;;2.50;;
67805;SDS011;54603;45.638;11.714;2024-02-23T10:54:22;3.00;;;2.50;;
67805;SDS011;54603;45.638;11.714;2024-02-23T10:56:52;4.10;;;2.60;;
67805;SDS011;54603;45.638;11.714;2024-02-23T10:59:21;5.00;;;2.40;;
67805;SDS011;54603;45.638;11.714;2024-02-23T11:01:49;5.10;;;2.60;;
67805;SDS011;54603;45.638;11.714;2024-02-23T11:04:21;5.30;;;4.00;;
67805;SDS011;54603;45.638;11.714;2024-02-23T11:06:56;5.20;;;3.50;;
67805;SDS011;54603;45.638;11.714;2024-02-23T11:09:31;5.30;;;3.60;;
67805;SDS011;54603;45.638;11.714;2024-02-23T11:11:58;4.80;;;3.60;;
67805;SDS011;54603;45.638;11.714;2024-02-23T11:14:37;6.40;;;3.50;;
67805;SDS011;54603;45.638;11.714;2024-02-23T11:17:04;5.90;;;5.00;;
67805;SDS011;54603;45.638;11.714;2024-02-23T11:19:35;6.60;;;5.40;;
67805;SDS011;54603;45.638;11.714;2024-02-23T11:22:02;6.40;;;5.00;;
67805;SDS011;54603;45.638;11.714;2024-02-23T11:24:30;5.90;;;5.00;;
67805;SDS011;54603;45.638;11.714;2024-02-23T11:27:01;6.50;;;4.50;;
67805;SDS011;54603;45.638;11.714;2024-02-23T11:29:34;8.60;;;4.90;;
67805;SDS011;54603;45.638;11.714;2024-02-23T11:32:16;5.90;;;4.80;;
67805;SDS011;54603;45.638;11.714;2024-02-23T11:34:55;6.60;;;4.20;;
67805;SDS011;54603;45.638;11.714;2024-02-23T11:37:22;7.00;;;4.90;;
67805;SDS011;54603;45.638;11.714;2024-02-23T11:39:48;5.90;;;4.00;;
67805;SDS011;54603;45.638;11.714;2024-02-23T11:42:15;5.00;;;3.90;;
67805;SDS011;54603;45.638;11.714;2024-02-23T11:45:09;12.00;;;4.40;;
67805;SDS011;54603;45.638;11.714;2024-02-23T11:47:39;15.40;;;5.00;;
67805;SDS011;54603;45.638;11.714;2024-02-23T11:50:09;21.10;;;5.90;;
67805;SDS011;54603;45.638;11.714;2024-02-23T11:52:39;26.30;;;6.80;;
67805;SDS011;54603;45.638;11.714;2024-02-23T11:55:06;23.50;;;6.40;;
67805;SDS011;54603;45.638;11.714;2024-02-23T11:57:35;24.20;;;7.00;;
67805;SDS011;54603;45.638;11.714;2024-02-23T12:00:02;21.10;;;6.60;;
67805;SDS011;54603;45.638;11.714;2024-02-23T12:02:29;22.50;;;7.20;;
67805;SDS011;54603;45.638;11.714;2024-02-23T12:04:57;19.30;;;6.60;;
67805;SDS011;54603;45.638;11.714;2024-02-23T12:07:24;22.80;;;6.90;;
67805;SDS011;54603;45.638;11.714;2024-02-23T12:09:52;22.10;;;6.80;;
67805;SDS011;54603;45.638;11.714;2024-02-23T12:12:18;25.80;;;7.20;;
67805;SDS011;54603;45.638;11.714;2024-02-23T12:14:44;20.30;;;6.90;;
67805;SDS011;54603;45.638;11.714;2024-02-23T12:17:10;21.90;;;7.00;;
67805;SDS011;54603;45.638;11.714;2024-02-23T12:19:44;18.50;;;5.80;;
67805;SDS011;54603;45.638;11.714;2024-02-23T12:22:14;17.70;;;5.50;;
67805;SDS011;54603;45.638;11.714;2024-02-23T12:24:41;21.70;;;6.30;;
67805;SDS011;54603;45.638;11.714;2024-02-23T12:27:07;19.70;;;6.40;;
67805;SDS011;54603;45.638;11.714;2024-02-23T12:29:33;22.80;;;6.60;;
67805;SDS011;54603;45.638;11.714;2024-02-23T12:32:05;22.40;;;6.20;;
67805;SDS011;54603;45.638;11.714;2024-02-23T12:34:32;21.10;;;6.20;;
67805;SDS011;54603;45.638;11.714;2024-02-23T12:36:58;18.60;;;6.60;;
67805;SDS011;54603;45.638;11.714;2024-02-23T12:39:27;17.60;;;6.00;;
67805;SDS011;54603;45.638;11.714;2024-02-23T12:41:56;20.40;;;6.60;;
67805;SDS011;54603;45.638;11.714;2024-02-23T12:46:59;13.80;;;4.90;;
67805;SDS011;54603;45.638;11.714;2024-02-23T12:49:34;18.70;;;5.90;;
67805;SDS011;54603;45.638;11.714;2024-02-23T12:52:07;14.60;;;5.10;;
67805;SDS011;54603;45.638;11.714;2024-02-23T12:54:34;14.00;;;4.80;;
67805;SDS011;54603;45.638;11.714;2024-02-23T12:57:05;12.00;;;4.80;;
67805;SDS011;54603;45.638;11.714;2024-02-23T12:59:35;12.10;;;5.10;;
67805;SDS011;54603;45.638;11.714;2024-02-23T13:02:01;16.60;;;5.50;;
67805;SDS011;54603;45.638;11.714;2024-02-23T13:04:30;15.10;;;5.10;;
67805;SDS011;54603;45.638;11.714;2024-02-23T13:07:00;14.60;;;5.30;;
67805;SDS011;54603;45.638;11.714;2024-02-23T13:09:26;12.60;;;5.20;;
67805;SDS011;54603;45.638;11.714;2024-02-23T13:11:52;11.40;;;4.70;;
67805;SDS011;54603;45.638;11.714;2024-02-23T13:14:18;10.30;;;4.50;;
67805;SDS011;54603;45.638;11.714;2024-02-23T13:16:44;11.30;;;5.30;;
67805;SDS011;54603;45.638;11.714;2024-02-23T13:19:10;14.70;;;4.90;;
67805;SDS011;54603;45.638;11.714;2024-02-23T13:21:35;12.30;;;5.40;;
67805;SDS011;54603;45.638;11.714;2024-02-23T13:24:04;14.60;;;5.40;;
67805;SDS011;54603;45.638;11.714;2024-02-23T13:26:32;14.60;;;4.90;;
67805;SDS011;54603;45.638;11.714;2024-02-23T13:28:58;12.70;;;5.60;;
67805;SDS011;54603;45.638;11.714;2024-02-23T13:31:25;9.60;;;4.40;;
67805;SDS011;54603;45.638;11.714;2024-02-23T13:33:51;13.30;;;5.00;;
67805;SDS011;54603;45.638;11.714;2024-02-23T13:36:17;8.90;;;4.30;;
67805;SDS011;54603;45.638;11.714;2024-02-23T13:38:43;10.80;;;4.20;;
67805;SDS011;54603;45.638;11.714;2024-02-23T13:41:10;9.20;;;4.10;;
67805;SDS011;54603;45.638;11.714;2024-02-23T13:43:38;9.80;;;4.20;;
67805;SDS011;54603;45.638;11.714;2024-02-23T13:46:09;14.40;;;5.10;;
67805;SDS011;54603;45.638;11.714;2024-02-23T13:51:05;11.20;;;4.20;;
67805;SDS011;54603;45.638;11.714;2024-02-23T13:53:36;11.50;;;4.50;;
67805;SDS011;54603;45.638;11.714;2024-02-23T13:56:06;9.50;;;3.70;;
67805;SDS011;54603;45.638;11.714;2024-02-23T13:58:38;6.30;;;3.40;;
67805;SDS011;54603;45.638;11.714;2024-02-23T14:01:07;12.20;;;4.20;;
67805;SDS011;54603;45.638;11.714;2024-02-23T14:03:33;9.70;;;4.10;;
67805;SDS011;54603;45.638;11.714;2024-02-23T14:05:58;13.00;;;4.60;;
67805;SDS011;54603;45.638;11.714;2024-02-23T14:08:24;14.00;;;4.70;;
67805;SDS011;54603;45.638;11.714;2024-02-23T14:10:50;10.70;;;4.10;;
67805;SDS011;54603;45.638;11.714;2024-02-23T14:13:16;11.40;;;4.50;;
67805;SDS011;54603;45.638;11.714;2024-02-23T14:15:42;11.10;;;4.10;;
67805;SDS011;54603;45.638;11.714;2024-02-23T14:18:08;9.80;;;4.00;;
67805;SDS011;54603;45.638;11.714;2024-02-23T14:20:33;10.40;;;4.40;;
67805;SDS011;54603;45.638;11.714;2024-02-23T14:22:59;8.50;;;4.20;;
67805;SDS011;54603;45.638;11.714;2024-02-23T14:25:25;9.40;;;3.90;;
67805;SDS011;54603;45.638;11.714;2024-02-23T14:27:51;9.50;;;4.20;;
67805;SDS011;54603;45.638;11.714;2024-02-23T14:30:20;12.00;;;4.30;;
67805;SDS011;54603;45.638;11.714;2024-02-23T14:32:47;8.40;;;3.80;;
67805;SDS011;54603;45.638;11.714;2024-02-23T14:35:13;10.80;;;4.10;;
67805;SDS011;54603;45.638;11.714;2024-02-23T14:37:42;9.60;;;4.00;;
67805;SDS011;54603;45.638;11.714;2024-02-23T14:40:08;10.00;;;3.50;;